Time;durP1;ratioP1;P1;durP2;ratioP2;P2;SDS_P1;SDS_P2;PMS_P1;PMS_P2;Temp;Humidity;BMP_temperature;BMP_pressure;BME280_temperature;BME280_humidity;BME280_pressure;Samples;Min_cycle;Max_cycle;Signal;HPM_P1;HPM_P2
2022/10/08 00:01:16;;;;;;;28.52;21.67;;;13.40;99.90;;;;;;5029977;28;20435;-70
2022/10/08 00:03:47;;;;;;;31.60;20.70;;;13.40;99.90;;;;;;5029266;28;20458;-70
2022/10/08 00:06:28;;;;;;;32.97;22.30;;;13.30;99.90;;;;;;5030238;28;20531;-70
2022/10/08 00:09:02;;;;;;;31.15;23.05;;;13.30;99.90;;;;;;5032136;28;20042;-70
2022/10/08 00:11:36;;;;;;;31.42;21.65;;;13.20;99.90;;;;;;5022320;28;20045;-70
2022/10/08 00:14:04;;;;;;;30.48;21.13;;;13.20;99.90;;;;;;5023811;28;20133;-70
2022/10/08 00:16:39;;;;;;;31.88;22.42;;;13.20;99.90;;;;;;5017918;28;20042;-70
2022/10/08 00:19:10;;;;;;;30.48;21.80;;;13.10;99.90;;;;;;5024037;28;20053;-70
2022/10/08 00:21:40;;;;;;;30.55;20.83;;;13.10;99.90;;;;;;5019014;28;20045;-70
2022/10/08 00:24:11;;;;;;;34.95;24.63;;;13.10;99.90;;;;;;5003354;28;20523;-70
2022/10/08 00:26:38;;;;;;;36.90;22.50;;;13.00;99.90;;;;;;5014301;28;20072;-69
2022/10/08 00:29:12;;;;;;;;;;;13.00;99.90;;;;;;5013485;28;20132;-69
2022/10/08 00:31:42;;;;;;;32.33;20.95;;;13.00;99.90;;;;;;5013161;28;20446;-69
2022/10/08 00:34:15;;;;;;;35.88;23.42;;;13.00;99.90;;;;;;5010863;28;20046;-68
2022/10/08 00:36:43;;;;;;;32.65;22.02;;;13.00;99.90;;;;;;5024403;28;20042;-69
2022/10/08 00:39:14;;;;;;;33.35;21.13;;;13.00;99.90;;;;;;5016755;28;20411;-69
2022/10/08 00:41:45;;;;;;;31.33;22.10;;;13.00;99.90;;;;;;5030258;28;20638;-69
2022/10/08 00:44:52;;;;;;;31.00;21.70;;;13.10;99.90;;;;;;5024748;28;20046;-70
2022/10/08 00:47:31;;;;;;;32.80;21.55;;;13.10;99.90;;;;;;5027849;28;20040;-70
2022/10/08 00:50:32;;;;;;;31.33;21.45;;;13.10;99.90;;;;;;5019776;28;20049;-69
2022/10/08 00:53:06;;;;;;;32.45;20.42;;;13.20;99.90;;;;;;5017473;28;20500;-70
2022/10/08 00:55:34;;;;;;;32.13;22.40;;;13.20;99.90;;;;;;5014269;28;20464;-69
2022/10/08 00:58:15;;;;;;;30.65;20.70;;;13.20;99.90;;;;;;5018490;28;20128;-70
2022/10/08 01:00:43;;;;;;;28.45;21.50;;;13.20;99.90;;;;;;5016324;28;20100;-69
2022/10/08 01:03:10;;;;;;;31.25;22.02;;;13.20;99.90;;;;;;5020160;28;20056;-70
2022/10/08 01:05:49;;;;;;;32.30;21.63;;;13.30;99.90;;;;;;5023994;28;20422;-69
2022/10/08 01:08:36;;;;;;;30.70;21.15;;;13.20;99.90;;;;;;4996728;28;20073;-69
2022/10/08 01:11:42;;;;;;;35.55;22.38;;;13.20;99.90;;;;;;5055255;28;20545;-69
2022/10/08 01:14:40;;;;;;;32.33;20.88;;;13.20;99.90;;;;;;5022545;28;20516;-70
2022/10/08 01:17:35;;;;;;;31.48;21.38;;;13.20;99.90;;;;;;5015940;28;20496;-71
2022/10/08 01:20:36;;;;;;;32.53;22.15;;;13.20;99.90;;;;;;5027083;28;20098;-69
2022/10/08 01:23:03;;;;;;;30.88;19.98;;;13.20;99.90;;;;;;5028218;28;20449;-69
2022/10/08 01:25:47;;;;;;;31.45;21.67;;;13.10;99.90;;;;;;5027837;28;20512;-69
2022/10/08 01:28:32;;;;;;;31.45;22.35;;;13.00;99.90;;;;;;5029414;28;20120;-69
2022/10/08 01:31:18;;;;;;;31.90;21.52;;;13.00;99.90;;;;;;5027081;28;20041;-70
2022/10/08 01:34:06;;;;;;;33.38;23.08;;;13.00;99.90;;;;;;5017378;28;20584;-69
2022/10/08 01:36:40;;;;;;;32.88;22.67;;;13.00;99.90;;;;;;5026391;28;20514;-69
2022/10/08 01:39:12;;;;;;;38.38;21.98;;;13.00;99.90;;;;;;5025917;28;20041;-71
2022/10/08 01:41:41;;;;;;;;;;;13.00;99.90;;;;;;5027150;28;20504;-70
2022/10/08 01:44:18;;;;;;;35.60;20.85;;;13.10;99.90;;;;;;5022726;28;19934;-69
2022/10/08 01:46:48;;;;;;;33.72;21.88;;;13.10;99.90;;;;;;5025667;28;20045;-68
2022/10/08 01:49:23;;;;;;;34.78;23.20;;;13.10;99.90;;;;;;5023590;28;20069;-69
2022/10/08 01:52:00;;;;;;;32.97;22.08;;;13.10;99.90;;;;;;5007812;28;20521;-69
2022/10/08 01:54:30;;;;;;;33.90;21.08;;;13.10;99.90;;;;;;5029234;28;20136;-69
2022/10/08 01:57:00;;;;;;;34.65;23.05;;;13.10;99.90;;;;;;5029809;28;20508;-70
2022/10/08 01:59:35;;;;;;;36.17;23.02;;;13.10;99.90;;;;;;5024567;28;20071;-69
2022/10/08 02:02:22;;;;;;;37.38;22.05;;;13.10;99.90;;;;;;5016901;28;20046;-70
2022/10/08 02:04:52;;;;;;;32.42;21.80;;;13.10;99.90;;;;;;5021593;28;20060;-70
2022/10/08 02:07:24;;;;;;;32.10;22.23;;;13.20;99.90;;;;;;5027085;28;20038;-70
2022/10/08 02:10:12;;;;;;;36.63;22.48;;;13.20;99.90;;;;;;5028562;28;20045;-70
2022/10/08 02:12:41;;;;;;;31.20;21.50;;;13.10;99.90;;;;;;5056958;28;20129;-70
2022/10/08 02:15:13;;;;;;;31.23;21.33;;;13.10;99.90;;;;;;5029501;28;20411;-70
2022/10/08 02:17:52;;;;;;;30.35;20.45;;;13.20;99.90;;;;;;5029486;28;20513;-70
2022/10/08 02:20:37;;;;;;;32.08;21.65;;;13.20;99.90;;;;;;5023131;28;20065;-70
2022/10/08 02:23:42;;;;;;;28.98;19.23;;;13.10;99.90;;;;;;5027982;28;20053;-70
2022/10/08 02:26:13;;;;;;;29.13;19.90;;;13.10;99.90;;;;;;5011608;28;20148;-70
2022/10/08 02:28:42;;;;;;;32.67;21.17;;;13.20;99.90;;;;;;5029283;28;20491;-70
2022/10/08 02:31:27;;;;;;;33.33;22.10;;;13.20;99.90;;;;;;5020677;28;20111;-70
2022/10/08 02:34:24;;;;;;;28.13;20.17;;;13.20;99.90;;;;;;5024861;28;20373;-70
2022/10/08 02:37:02;;;;;;;31.92;21.98;;;13.20;99.90;;;;;;5014668;28;20073;-70
2022/10/08 02:39:34;;;;;;;33.20;22.02;;;13.10;99.90;;;;;;5019628;28;20141;-70
2022/10/08 02:42:06;;;;;;;31.85;22.20;;;13.10;99.90;;;;;;5012762;28;20040;-70
2022/10/08 02:44:48;;;;;;;28.85;20.55;;;13.10;99.90;;;;;;5013235;28;20362;-69
2022/10/08 02:47:20;;;;;;;29.53;21.27;;;13.10;99.90;;;;;;5025993;28;20160;-70
2022/10/08 02:49:52;;;;;;;32.05;20.75;;;13.10;99.90;;;;;;5029175;28;20300;-70
2022/10/08 02:52:21;;;;;;;27.80;18.70;;;13.10;99.90;;;;;;5023366;28;20045;-70
2022/10/08 02:54:51;;;;;;;33.28;23.02;;;13.10;99.90;;;;;;5031745;28;20502;-70
2022/10/08 02:57:31;;;;;;;33.85;20.40;;;13.20;99.90;;;;;;5014983;28;20056;-70
2022/10/08 02:59:58;;;;;;;28.58;19.55;;;13.10;99.90;;;;;;5026674;28;20053;-70
2022/10/08 03:02:35;;;;;;;30.00;21.75;;;13.10;99.90;;;;;;5030321;28;20553;-70
2022/10/08 03:05:12;;;;;;;31.73;22.30;;;13.10;99.90;;;;;;5021838;28;20041;-70
2022/10/08 03:07:41;;;;;;;32.30;20.60;;;13.10;99.90;;;;;;5027094;28;20096;-70
2022/10/08 03:10:10;;;;;;;37.08;22.92;;;13.10;99.90;;;;;;5030622;28;20399;-70
2022/10/08 03:12:38;;;;;;;33.80;22.20;;;13.00;99.90;;;;;;5030154;28;20046;-70
2022/10/08 03:15:07;;;;;;;30.88;21.17;;;13.00;99.90;;;;;;5032556;28;20412;-70
2022/10/08 03:17:40;;;;;;;31.30;21.85;;;13.00;99.90;;;;;;5025344;28;20046;-70
2022/10/08 03:20:09;;;;;;;30.23;20.73;;;13.00;99.90;;;;;;5015873;28;20140;-70
2022/10/08 03:22:37;;;;;;;31.27;20.70;;;13.00;99.90;;;;;;5024528;28;20129;-70
2022/10/08 03:25:05;;;;;;;32.63;20.92;;;12.90;99.90;;;;;;5022082;28;20136;-70
2022/10/08 03:27:34;;;;;;;32.30;20.85;;;12.90;99.90;;;;;;5030320;28;20049;-70
2022/10/08 03:30:02;;;;;;;34.20;21.58;;;12.90;99.90;;;;;;5029551;28;20078;-70
2022/10/08 03:32:30;;;;;;;29.55;20.67;;;12.80;99.90;;;;;;5030885;28;20119;-70
2022/10/08 03:34:57;;;;;;;33.40;22.42;;;12.80;99.90;;;;;;5018452;28;20477;-70
2022/10/08 03:37:24;;;;;;;32.55;21.45;;;12.80;99.90;;;;;;5025591;28;20054;-70
2022/10/08 03:39:51;;;;;;;29.90;21.30;;;12.70;99.90;;;;;;5030854;28;20046;-70
2022/10/08 03:42:19;;;;;;;34.50;21.67;;;12.70;99.90;;;;;;5030542;28;20053;-70
2022/10/08 03:44:46;;;;;;;39.95;21.88;;;12.70;99.90;;;;;;5012762;28;20069;-70
2022/10/08 03:47:13;;;;;;;33.75;22.40;;;12.70;99.90;;;;;;5020422;28;20050;-70
2022/10/08 03:49:41;;;;;;;36.75;21.58;;;12.70;99.90;;;;;;5029445;28;20161;-70
2022/10/08 03:52:08;;;;;;;34.50;22.20;;;12.70;99.90;;;;;;5030629;28;20132;-70
2022/10/08 03:54:36;;;;;;;31.55;21.75;;;12.80;99.90;;;;;;5026153;28;20069;-70
2022/10/08 03:57:04;;;;;;;33.20;21.05;;;12.80;99.90;;;;;;5027905;28;20065;-71
2022/10/08 03:59:31;;;;;;;34.08;21.05;;;12.80;99.90;;;;;;5030315;28;20500;-70
2022/10/08 04:01:58;;;;;;;30.52;21.48;;;12.80;99.90;;;;;;5028418;28;20037;-70
2022/10/08 04:04:26;;;;;;;31.17;20.42;;;12.80;99.90;;;;;;5012983;28;20053;-70
2022/10/08 04:06:53;;;;;;;31.77;21.20;;;12.80;99.90;;;;;;5017172;28;20045;-70
2022/10/08 04:09:20;;;;;;;30.05;19.67;;;12.90;99.90;;;;;;5020040;28;20064;-70
2022/10/08 04:11:48;;;;;;;27.40;19.95;;;12.80;99.90;;;;;;5024245;28;20048;-70
2022/10/08 04:14:15;;;;;;;29.60;20.25;;;12.80;99.90;;;;;;5029400;28;20049;-70
2022/10/08 04:16:42;;;;;;;30.10;20.25;;;12.80;99.90;;;;;;5030406;28;20443;-70
2022/10/08 04:19:11;;;;;;;32.15;19.90;;;12.80;99.90;;;;;;5028395;28;20560;-70
2022/10/08 04:21:38;;;;;;;31.63;21.33;;;12.70;99.90;;;;;;5029473;28;20503;-70
2022/10/08 04:24:07;;;;;;;34.92;20.98;;;12.70;99.90;;;;;;5030258;28;20056;-70
2022/10/08 04:26:35;;;;;;;33.33;20.90;;;12.70;99.90;;;;;;5030890;28;20046;-70
2022/10/08 04:29:02;;;;;;;26.08;18.65;;;12.70;99.90;;;;;;5023167;28;20039;-70
2022/10/08 04:31:29;;;;;;;29.08;19.35;;;12.70;99.90;;;;;;5029633;28;20626;-70
2022/10/08 04:33:57;;;;;;;31.15;20.85;;;12.70;99.90;;;;;;5024218;28;20044;-70
2022/10/08 04:36:24;;;;;;;27.48;19.38;;;12.70;99.90;;;;;;5025225;28;20049;-70
2022/10/08 04:38:51;;;;;;;30.38;20.88;;;12.70;99.90;;;;;;5027740;28;20037;-70
2022/10/08 04:41:22;;;;;;;26.75;19.45;;;12.80;99.90;;;;;;5021323;28;20496;-70
2022/10/08 04:43:50;;;;;;;31.70;19.98;;;12.80;99.90;;;;;;5058261;28;20082;-70
2022/10/08 04:46:19;;;;;;;26.45;19.20;;;12.80;99.90;;;;;;5029072;28;20488;-70
2022/10/08 04:48:52;;;;;;;27.60;19.50;;;12.80;99.90;;;;;;5008939;28;20526;-70
2022/10/08 04:51:22;;;;;;;26.90;20.52;;;12.80;99.90;;;;;;5026565;28;20491;-70
2022/10/08 04:53:50;;;;;;;27.35;18.33;;;12.80;99.90;;;;;;5028087;28;20111;-70
2022/10/08 04:56:20;;;;;;;32.60;20.42;;;12.80;99.90;;;;;;5029219;28;20096;-70
2022/10/08 04:58:48;;;;;;;25.75;19.38;;;12.70;99.90;;;;;;5029344;28;20136;-70
2022/10/08 05:01:17;;;;;;;25.17;18.73;;;12.70;99.90;;;;;;5024208;28;20119;-70
2022/10/08 05:03:48;;;;;;;23.42;17.42;;;12.70;99.90;;;;;;5017124;28;20050;-70
2022/10/08 05:06:18;;;;;;;26.20;18.73;;;12.70;99.90;;;;;;5028733;28;20053;-70
2022/10/08 05:08:47;;;;;;;24.88;18.17;;;12.70;99.90;;;;;;5026553;28;20128;-70
2022/10/08 05:11:15;;;;;;;27.77;18.17;;;12.80;99.90;;;;;;5030188;28;20064;-70
2022/10/08 05:13:47;;;;;;;27.33;19.15;;;12.80;99.90;;;;;;5029462;28;20437;-70
2022/10/08 05:16:16;;;;;;;34.67;20.77;;;12.80;99.90;;;;;;5029022;28;20395;-70
2022/10/08 05:18:45;;;;;;;27.88;19.25;;;12.80;99.90;;;;;;5019506;28;20449;-70
2022/10/08 05:21:15;;;;;;;29.05;19.70;;;12.80;99.90;;;;;;5029639;28;20037;-70
2022/10/08 05:23:42;;;;;;;32.17;20.50;;;12.90;99.90;;;;;;5027402;28;20053;-70
2022/10/08 05:26:22;;;;;;;27.48;19.60;;;12.90;99.90;;;;;;5019963;28;20042;-70
2022/10/08 05:29:10;;;;;;;28.45;18.08;;;13.00;99.90;;;;;;5021278;28;20412;-70
2022/10/08 05:31:37;;;;;;;25.98;18.83;;;13.00;99.90;;;;;;5026594;28;20041;-70
2022/10/08 05:34:05;;;;;;;28.23;19.38;;;13.10;99.90;;;;;;5021128;28;20558;-71
2022/10/08 05:36:33;;;;;;;25.98;18.10;;;13.10;99.90;;;;;;5011799;28;20040;-70
2022/10/08 05:39:02;;;;;;;27.45;18.52;;;13.10;99.90;;;;;;5016088;28;20069;-70
2022/10/08 05:41:36;;;;;;;24.13;17.00;;;13.10;99.90;;;;;;5019967;28;20566;-70
2022/10/08 05:44:04;;;;;;;24.40;18.77;;;13.10;99.90;;;;;;5025932;28;20136;-71
2022/10/08 05:46:33;;;;;;;30.40;20.50;;;13.10;99.90;;;;;;5021271;28;20125;-70
2022/10/08 05:49:03;;;;;;;30.17;18.10;;;13.10;99.90;;;;;;5012640;28;20071;-71
2022/10/08 05:51:30;;;;;;;30.02;19.40;;;13.10;99.90;;;;;;5009404;28;20048;-71
2022/10/08 05:53:58;;;;;;;23.73;16.90;;;13.10;99.90;;;;;;5011102;28;20038;-71
2022/10/08 05:56:27;;;;;;;22.67;16.23;;;13.10;99.90;;;;;;5008493;28;20048;-71
2022/10/08 05:58:54;;;;;;;28.77;18.90;;;13.10;99.90;;;;;;5009329;28;20076;-71
2022/10/08 06:01:24;;;;;;;26.52;19.13;;;13.20;99.90;;;;;;5016258;28;20046;-71
2022/10/08 06:03:57;;;;;;;26.52;17.67;;;13.20;99.90;;;;;;5027763;28;20041;-69
2022/10/08 06:06:28;;;;;;;30.05;19.17;;;13.30;99.90;;;;;;5016193;28;20120;-70
2022/10/08 06:08:59;;;;;;;25.85;17.65;;;13.30;99.90;;;;;;5023868;28;20041;-70
2022/10/08 06:11:28;;;;;;;28.35;17.98;;;13.30;99.90;;;;;;5023515;28;20033;-70
2022/10/08 06:13:58;;;;;;;26.65;18.20;;;13.40;99.90;;;;;;5011056;28;20061;-71
2022/10/08 06:16:27;;;;;;;25.77;18.25;;;13.40;99.90;;;;;;5011491;28;20038;-71
2022/10/08 06:18:55;;;;;;;26.35;17.75;;;13.50;99.90;;;;;;5013238;28;20128;-71
2022/10/08 06:21:25;;;;;;;32.42;18.10;;;13.60;99.90;;;;;;5025449;28;20182;-71
2022/10/08 06:23:55;;;;;;;31.40;19.58;;;13.70;99.90;;;;;;5003520;28;20059;-71
2022/10/08 06:26:25;;;;;;;26.00;18.63;;;13.70;99.90;;;;;;5016585;28;20052;-71
2022/10/08 06:28:58;;;;;;;31.02;19.13;;;13.70;99.90;;;;;;5012972;28;20116;-71
2022/10/08 06:31:25;;;;;;;25.92;18.42;;;13.80;99.90;;;;;;5013506;28;20057;-71
2022/10/08 06:33:57;;;;;;;26.40;19.05;;;13.90;99.90;;;;;;5016266;28;20045;-71
2022/10/08 06:36:26;;;;;;;27.45;18.80;;;13.90;99.90;;;;;;5013392;28;20103;-71
2022/10/08 06:39:05;;;;;;;26.40;18.80;;;14.00;99.90;;;;;;5014178;28;20045;-71
2022/10/08 06:41:33;;;;;;;28.08;19.50;;;14.00;99.90;;;;;;5024250;28;20116;-71
2022/10/08 06:44:06;;;;;;;23.70;17.10;;;14.00;99.90;;;;;;5028724;28;20056;-71
2022/10/08 06:46:34;;;;;;;26.42;17.60;;;14.10;99.90;;;;;;5022352;28;20049;-71
2022/10/08 06:49:04;;;;;;;28.67;18.90;;;14.10;99.90;;;;;;5031662;28;20450;-71
2022/10/08 06:51:32;;;;;;;31.35;18.27;;;14.10;99.90;;;;;;5033127;28;20538;-71
2022/10/08 06:54:00;;;;;;;28.88;19.42;;;14.10;99.90;;;;;;5023520;28;20046;-71
2022/10/08 06:56:36;;;;;;;30.52;18.83;;;14.20;99.90;;;;;;5031729;28;20525;-71
2022/10/08 06:59:04;;;;;;;24.63;17.88;;;14.20;99.90;;;;;;5025107;28;20061;-72
2022/10/08 07:01:33;;;;;;;28.58;18.05;;;14.30;99.90;;;;;;5030303;28;20049;-71
2022/10/08 07:04:03;;;;;;;25.20;18.63;;;14.40;99.90;;;;;;5013569;28;20121;-71
2022/10/08 07:06:31;;;;;;;26.48;18.45;;;14.50;99.90;;;;;;5030291;28;20074;-72
2022/10/08 07:08:59;;;;;;;27.92;18.23;;;14.60;99.90;;;;;;5027647;28;20384;-72
2022/10/08 07:11:27;;;;;;;25.10;16.70;;;14.70;99.90;;;;;;5015941;28;20047;-74
2022/10/08 07:13:55;;;;;;;23.42;17.73;;;14.80;99.90;;;;;;5031565;28;20042;-73
2022/10/08 07:16:25;;;;;;;25.70;17.50;;;14.90;99.90;;;;;;5028373;28;20045;-73
2022/10/08 07:18:55;;;;;;;26.05;18.08;;;14.80;99.90;;;;;;5022834;28;20136;-73
2022/10/08 07:21:23;;;;;;;25.60;18.13;;;15.00;99.90;;;;;;5024293;28;20503;-71
2022/10/08 07:23:50;;;;;;;31.02;18.15;;;14.90;99.90;;;;;;5022208;28;20064;-71
2022/10/08 07:26:23;;;;;;;29.55;17.38;;;14.90;99.90;;;;;;5029750;28;20060;-70
2022/10/08 07:28:58;;;;;;;26.00;18.45;;;15.10;99.90;;;;;;5027004;28;20488;-70
2022/10/08 07:31:28;;;;;;;22.73;16.63;;;15.20;99.90;;;;;;5030710;28;20041;-70
2022/10/08 07:33:57;;;;;;;28.90;18.27;;;15.20;99.90;;;;;;5024683;28;20440;-71
2022/10/08 07:36:26;;;;;;;26.17;17.75;;;15.30;99.90;;;;;;5011545;28;20045;-71
2022/10/08 07:39:13;;;;;;;25.30;17.10;;;15.30;99.90;;;;;;5012664;28;20532;-71
2022/10/08 07:41:41;;;;;;;24.92;17.30;;;15.20;99.90;;;;;;5012089;28;20050;-72
2022/10/08 07:44:10;;;;;;;23.90;17.42;;;15.10;99.90;;;;;;5019490;28;20049;-71
2022/10/08 07:46:42;;;;;;;27.23;17.85;;;15.10;99.90;;;;;;5013648;28;20053;-72
2022/10/08 07:49:09;;;;;;;27.27;17.13;;;15.20;99.90;;;;;;5013756;28;20033;-71
2022/10/08 07:51:37;;;;;;;24.20;16.50;;;15.30;99.90;;;;;;5013604;28;20457;-71
2022/10/08 07:54:07;;;;;;;25.25;16.58;;;15.50;99.90;;;;;;5015159;28;20034;-72
2022/10/08 07:56:35;;;;;;;26.15;16.52;;;15.70;99.90;;;;;;5028222;28;20033;-70
2022/10/08 07:59:03;;;;;;;23.02;15.50;;;15.80;99.90;;;;;;5023639;28;20041;-71
2022/10/08 08:01:33;;;;;;;23.65;15.32;;;15.80;99.90;;;;;;5020322;28;20149;-71
2022/10/08 08:04:08;;;;;;;26.65;16.48;;;16.00;99.90;;;;;;5014280;28;20054;-70
2022/10/08 08:06:44;;;;;;;26.60;16.55;;;16.10;99.90;;;;;;5027500;28;20057;-71
2022/10/08 08:09:13;;;;;;;23.45;15.32;;;16.10;99.90;;;;;;5026622;28;20049;-71
2022/10/08 08:11:40;;;;;;;24.60;15.70;;;16.20;99.90;;;;;;5014601;28;20064;-71
2022/10/08 08:14:07;;;;;;;22.50;15.52;;;16.30;99.90;;;;;;5017597;28;20048;-71
2022/10/08 08:16:35;;;;;;;24.55;15.88;;;16.30;99.90;;;;;;5019019;28;20820;-72
2022/10/08 08:19:03;;;;;;;24.27;16.30;;;16.30;99.90;;;;;;5023027;28;20120;-71
2022/10/08 08:21:33;;;;;;;22.65;15.50;;;16.20;99.90;;;;;;5023516;28;20037;-72
2022/10/08 08:24:12;;;;;;;23.30;15.77;;;16.20;99.90;;;;;;5023227;28;20049;-72
2022/10/08 08:26:41;;;;;;;25.92;16.17;;;16.30;99.90;;;;;;5015453;28;20049;-71
2022/10/08 08:29:17;;;;;;;22.55;15.43;;;16.40;99.90;;;;;;5018783;28;20042;-72
2022/10/08 08:31:46;;;;;;;21.10;15.18;;;16.40;99.90;;;;;;5027105;28;20449;-71
2022/10/08 08:34:17;;;;;;;25.10;15.18;;;16.40;99.90;;;;;;5050297;28;20050;-72
2022/10/08 08:36:48;;;;;;;21.23;14.23;;;16.40;99.90;;;;;;5024750;28;20056;-71
2022/10/08 08:39:24;;;;;;;21.20;13.95;;;16.50;99.90;;;;;;5028432;28;20791;-72
2022/10/08 08:42:20;;;;;;;18.48;12.77;;;16.50;99.90;;;;;;5021796;28;20059;-69
2022/10/08 08:44:52;;;;;;;23.48;12.85;;;16.70;99.90;;;;;;5016129;28;20054;-72
2022/10/08 08:47:36;;;;;;;21.45;13.20;;;16.60;99.90;;;;;;5027723;28;20045;-70
2022/10/08 08:50:12;;;;;;;23.10;12.93;;;16.60;99.90;;;;;;5021064;28;20061;-72
2022/10/08 08:52:41;;;;;;;22.67;13.25;;;16.70;99.90;;;;;;5017386;28;20052;-71
2022/10/08 08:55:17;;;;;;;18.80;13.07;;;16.80;99.90;;;;;;5009162;28;20582;-72
2022/10/08 08:57:50;;;;;;;21.00;12.20;;;16.80;99.90;;;;;;5021504;28;20036;-72
2022/10/08 09:00:21;;;;;;;21.40;12.95;;;16.70;99.90;;;;;;5021349;28;20407;-73
2022/10/08 09:03:00;;;;;;;17.52;13.02;;;16.70;99.90;;;;;;5026676;28;20045;-73
2022/10/08 09:05:37;;;;;;;17.73;10.77;;;16.70;99.90;;;;;;5011178;28;20049;-73
2022/10/08 09:08:30;;;;;;;14.77;9.90;;;16.80;99.90;;;;;;5040202;28;20037;-72
2022/10/08 09:11:01;;;;;;;15.98;9.30;;;17.10;99.90;;;;;;5024976;28;20044;-75
2022/10/08 09:14:06;;;;;;;17.77;9.80;;;17.30;99.90;;;;;;5023323;28;20037;-73
2022/10/08 09:16:35;;;;;;;17.85;9.18;;;17.50;99.90;;;;;;5027821;28;20045;-73
2022/10/08 09:19:03;;;;;;;17.08;8.77;;;17.70;99.90;;;;;;4997633;28;20502;-75
2022/10/08 09:21:32;;;;;;;12.52;8.93;;;17.60;99.90;;;;;;5023463;28;20060;-73
2022/10/08 09:24:00;;;;;;;16.38;9.50;;;17.70;99.90;;;;;;5020960;28;20091;-73
2022/10/08 09:26:34;;;;;;;13.60;8.30;;;17.90;99.90;;;;;;5027015;28;20144;-74
2022/10/08 09:29:03;;;;;;;14.98;8.68;;;17.60;99.90;;;;;;5017586;28;20132;-74
2022/10/08 09:31:47;;;;;;;14.05;8.40;;;17.90;99.90;;;;;;5025179;28;20416;-73
2022/10/08 09:34:18;;;;;;;11.82;7.93;;;17.90;99.90;;;;;;5010881;28;20049;-73
2022/10/08 09:36:47;;;;;;;14.25;7.60;;;18.00;99.90;;;;;;5023922;28;20086;-73
2022/10/08 09:39:19;;;;;;;11.73;7.35;;;18.10;99.90;;;;;;5028962;28;20571;-74
2022/10/08 09:42:05;;;;;;;13.35;7.10;;;18.40;99.90;;;;;;5029243;28;20045;-73
2022/10/08 09:44:45;;;;;;;12.63;6.15;;;18.60;99.90;;;;;;5026901;28;20108;-73
2022/10/08 09:47:14;;;;;;;12.43;5.88;;;18.40;99.90;;;;;;5012969;28;20057;-74
2022/10/08 09:49:43;;;;;;;12.60;5.80;;;18.40;99.90;;;;;;5027329;28;20049;-74
2022/10/08 09:52:19;;;;;;;10.77;5.45;;;18.50;99.90;;;;;;4988773;28;20702;-73
2022/10/08 09:55:18;;;;;;;11.57;5.53;;;18.30;99.90;;;;;;5023476;28;20112;-74
2022/10/08 09:57:53;;;;;;;10.25;4.68;;;18.60;99.90;;;;;;5026658;28;20041;-75
2022/10/08 10:00:38;;;;;;;11.50;4.30;;;18.70;99.90;;;;;;5010464;28;20566;-73
2022/10/08 10:03:15;;;;;;;9.55;4.30;;;18.40;99.90;;;;;;5027215;28;20059;-73
2022/10/08 10:05:49;;;;;;;8.77;4.20;;;18.50;99.90;;;;;;5027432;28;20487;-74
2022/10/08 10:08:45;;;;;;;9.50;4.40;;;18.30;99.90;;;;;;5024063;28;20049;-73
2022/10/08 10:11:19;;;;;;;8.95;4.20;;;18.30;99.90;;;;;;5025872;28;20071;-74
2022/10/08 10:13:48;;;;;;;10.45;4.25;;;18.30;99.90;;;;;;5024858;28;20042;-73
2022/10/08 10:16:31;;;;;;;8.02;4.00;;;18.10;99.90;;;;;;5027078;28;20030;-71
2022/10/08 10:19:03;;;;;;;6.82;3.85;;;18.00;99.90;;;;;;5014463;28;20053;-72
2022/10/08 10:21:50;;;;;;;;;;;17.90;99.90;;;;;;5024191;28;20050;-71
2022/10/08 10:24:29;;;;;;;9.13;4.32;;;17.70;99.90;;;;;;5023468;28;19929;-73
2022/10/08 10:27:05;;;;;;;11.60;4.47;;;17.60;99.90;;;;;;5015380;28;20060;-73
2022/10/08 10:30:07;;;;;;;8.45;3.90;;;17.70;99.90;;;;;;5029136;28;20052;-72
2022/10/08 10:32:47;;;;;;;6.70;4.05;;;17.50;99.90;;;;;;5037620;28;20072;-74
2022/10/08 10:35:30;;;;;;;7.72;3.80;;;17.60;99.90;;;;;;5027051;28;20041;-72
2022/10/08 10:38:21;;;;;;;;;;;17.90;99.90;;;;;;5023429;28;20042;-72
2022/10/08 10:41:16;;;;;;;6.68;3.60;;;18.00;99.90;;;;;;5027456;28;20003;-73
2022/10/08 10:43:49;;;;;;;6.72;3.85;;;18.20;99.90;;;;;;5010790;28;20057;-72
2022/10/08 10:46:45;;;;;;;8.10;3.83;;;18.40;99.90;;;;;;5029555;28;20057;-72
2022/10/08 10:49:20;;;;;;;8.35;3.65;;;18.30;99.90;;;;;;5013715;28;20049;-72
2022/10/08 10:52:30;;;;;;;8.57;3.83;;;18.20;99.90;;;;;;5026686;28;20062;-73
2022/10/08 10:55:22;;;;;;;5.82;3.90;;;18.20;99.90;;;;;;5018240;28;20499;-74
2022/10/08 10:58:04;;;;;;;7.38;3.70;;;18.40;99.90;;;;;;5028747;28;20034;-73
2022/10/08 11:00:41;;;;;;;9.32;4.38;;;18.40;99.90;;;;;;5027397;28;20057;-73
2022/10/08 11:03:38;;;;;;;8.30;4.18;;;18.60;99.90;;;;;;5027425;28;20404;-73
2022/10/08 11:06:37;;;;;;;8.55;4.43;;;18.40;99.90;;;;;;5012866;28;20132;-72
2022/10/08 11:09:32;;;;;;;7.50;4.10;;;18.30;99.90;;;;;;5023267;28;20423;-72
2022/10/08 11:12:22;;;;;;;9.10;4.85;;;18.10;99.90;;;;;;5032281;28;20137;-72
2022/10/08 11:15:14;;;;;;;8.88;4.72;;;18.50;99.90;;;;;;5021783;28;20038;-72
2022/10/08 11:18:00;;;;;;;9.80;4.47;;;19.00;99.90;;;;;;5031196;28;20049;-73
2022/10/08 11:20:38;;;;;;;9.10;3.92;;;19.00;99.90;;;;;;5026806;28;20056;-72
2022/10/08 11:23:08;;;;;;;8.95;4.75;;;19.30;99.90;;;;;;5026941;28;20048;-73
2022/10/08 11:25:44;;;;;;;7.63;3.85;;;19.00;99.90;;;;;;5030646;28;20060;-72
2022/10/08 11:28:59;;;;;;;9.82;4.10;;;19.10;99.90;;;;;;5027597;28;20041;-72
2022/10/08 11:31:40;;;;;;;7.43;4.00;;;19.00;99.90;;;;;;5025954;28;20124;-72
2022/10/08 11:34:22;;;;;;;6.97;3.72;;;19.10;99.90;;;;;;5027041;28;20461;-73
2022/10/08 11:36:57;;;;;;;6.78;3.90;;;18.80;99.90;;;;;;5026657;28;20085;-73
2022/10/08 11:39:48;;;;;;;9.30;3.88;;;19.20;99.90;;;;;;5030771;28;20050;-72
2022/10/08 11:42:51;;;;;;;6.70;3.47;;;19.30;99.90;;;;;;5028439;28;20416;-73
2022/10/08 11:45:22;;;;;;;7.18;3.90;;;19.70;99.90;;;;;;5018369;28;20080;-73
2022/10/08 11:47:53;;;;;;;6.55;3.95;;;20.20;99.90;;;;;;5032763;28;20037;-72
2022/10/08 11:50:36;;;;;;;8.18;4.03;;;20.90;99.90;;;;;;5030056;28;20052;-70
2022/10/08 11:53:09;;;;;;;8.43;3.90;;;20.70;99.90;;;;;;5043196;28;20046;-71
2022/10/08 11:55:37;;;;;;;7.18;3.92;;;21.00;99.90;;;;;;5026362;28;20495;-71
2022/10/08 11:58:16;;;;;;;9.45;4.07;;;21.20;99.90;;;;;;5030935;28;20034;-71
2022/10/08 12:00:48;;;;;;;5.60;3.70;;;21.40;99.90;;;;;;5029599;28;20148;-72
2022/10/08 12:03:33;;;;;;;6.45;3.97;;;20.80;99.90;;;;;;5026820;28;20530;-72
2022/10/08 12:06:25;;;;;;;9.02;3.92;;;20.50;99.90;;;;;;5023398;28;20491;-70
2022/10/08 12:08:58;;;;;;;8.20;4.40;;;20.20;99.90;;;;;;5021771;28;20152;-72
2022/10/08 12:11:31;;;;;;;6.22;3.72;;;19.80;99.90;;;;;;5031484;28;20049;-73
2022/10/08 12:14:14;;;;;;;10.13;4.20;;;19.50;99.90;;;;;;5017223;28;20042;-73
2022/10/08 12:16:47;;;;;;;7.68;3.92;;;19.20;99.90;;;;;;5018568;28;20037;-74
2022/10/08 12:19:33;;;;;;;9.68;3.85;;;19.10;99.90;;;;;;5028636;28;20055;-72
2022/10/08 12:22:24;;;;;;;7.63;4.00;;;19.50;99.90;;;;;;4999396;28;20597;-72
2022/10/08 12:24:58;;;;;;;8.82;4.30;;;20.10;99.90;;;;;;5014360;28;20056;-73
2022/10/08 12:27:31;;;;;;;8.40;3.95;;;20.90;99.90;;;;;;5030111;28;20037;-71
2022/10/08 12:30:07;;;;;;;7.47;3.72;;;22.30;99.90;;;;;;5029487;28;20136;-71
2022/10/08 12:32:40;;;;;;;8.10;3.90;;;23.10;99.90;;;;;;5030915;28;20095;-71
2022/10/08 12:35:33;;;;;;;11.10;4.35;;;24.90;99.90;;;;;;5012117;28;20060;-71
2022/10/08 12:38:04;;;;;;;8.85;3.90;;;24.40;99.90;;;;;;5021094;28;20029;-71
2022/10/08 12:40:41;;;;;;;6.78;3.90;;;25.50;99.90;;;;;;5030997;28;20451;-71
2022/10/08 12:43:11;;;;;;;7.18;3.60;;;26.20;99.60;;;;;;5023585;28;20056;-72
2022/10/08 12:46:05;;;;;;;6.32;3.63;;;25.50;99.30;;;;;;5021624;28;20576;-72
2022/10/08 12:48:49;;;;;;;6.20;3.72;;;25.20;98.90;;;;;;5021800;28;20085;-72
2022/10/08 12:51:54;;;;;;;4.80;3.35;;;25.90;99.10;;;;;;5025393;28;20550;-75
2022/10/08 12:54:24;;;;;;;8.15;4.30;;;25.90;96.90;;;;;;5025646;28;20049;-72
2022/10/08 12:56:52;;;;;;;6.80;3.80;;;24.90;97.50;;;;;;5031138;28;20056;-72
2022/10/08 12:59:21;;;;;;;7.18;3.85;;;25.60;97.20;;;;;;5029878;28;20037;-74
2022/10/08 13:01:52;;;;;;;5.75;3.88;;;27.30;95.60;;;;;;5024163;28;20061;-72
2022/10/08 13:04:25;;;;;;;5.67;4.30;;;27.90;93.90;;;;;;5015405;28;20042;-70
2022/10/08 13:06:54;;;;;;;9.20;3.97;;;27.80;92.40;;;;;;5020325;28;20439;-73
2022/10/08 13:09:34;;;;;;;6.47;4.07;;;28.30;91.80;;;;;;5027770;28;20226;-73
2022/10/08 13:12:06;;;;;;;6.93;4.18;;;28.20;92.10;;;;;;5021056;28;20048;-75